sensor_id;sensor_type;location;lat;lon;timestamp;P1;durP1;ratioP1;P2;durP2;ratioP2
49548;SDS011;35450;44.518;7.466;2022-07-23T00:02:10;10.82;;;7.47;;
49548;SDS011;35450;44.518;7.466;2022-07-23T00:05:14;13.07;;;6.50;;
49548;SDS011;35450;44.518;7.466;2022-07-23T00:08:18;14.27;;;7.28;;
49548;SDS011;35450;44.518;7.466;2022-07-23T00:11:22;11.02;;;7.18;;
49548;SDS011;35450;44.518;7.466;2022-07-23T00:14:26;25.52;;;7.50;;
49548;SDS011;35450;44.518;7.466;2022-07-23T00:17:30;11.10;;;7.05;;
49548;SDS011;35450;44.518;7.466;2022-07-23T00:20:34;7.28;;;6.05;;
49548;SDS011;35450;44.518;7.466;2022-07-23T00:23:38;7.10;;;6.40;;
49548;SDS011;35450;44.518;7.466;2022-07-23T00:26:42;10.13;;;6.35;;
49548;SDS011;35450;44.518;7.466;2022-07-23T00:29:46;9.38;;;5.80;;
49548;SDS011;35450;44.518;7.466;2022-07-23T00:32:54;9.60;;;6.55;;
49548;SDS011;35450;44.518;7.466;2022-07-23T00:36:00;13.85;;;6.63;;
49548;SDS011;35450;44.518;7.466;2022-07-23T00:39:04;10.10;;;6.88;;
49548;SDS011;35450;44.518;7.466;2022-07-23T00:42:07;12.02;;;7.07;;
49548;SDS011;35450;44.518;7.466;2022-07-23T00:45:11;10.00;;;6.85;;
49548;SDS011;35450;44.518;7.466;2022-07-23T00:48:16;9.10;;;6.15;;
49548;SDS011;35450;44.518;7.466;2022-07-23T00:51:20;9.93;;;7.20;;
49548;SDS011;35450;44.518;7.466;2022-07-23T00:54:25;10.95;;;6.00;;
49548;SDS011;35450;44.518;7.466;2022-07-23T00:57:29;9.65;;;6.40;;
49548;SDS011;35450;44.518;7.466;2022-07-23T01:00:34;9.38;;;6.80;;
49548;SDS011;35450;44.518;7.466;2022-07-23T01:03:38;12.93;;;6.18;;
49548;SDS011;35450;44.518;7.466;2022-07-23T01:06:42;9.75;;;6.55;;
49548;SDS011;35450;44.518;7.466;2022-07-23T01:09:47;14.30;;;6.63;;
49548;SDS011;35450;44.518;7.466;2022-07-23T01:12:53;12.15;;;5.90;;
49548;SDS011;35450;44.518;7.466;2022-07-23T01:15:57;7.57;;;6.45;;
49548;SDS011;35450;44.518;7.466;2022-07-23T01:19:01;10.88;;;7.45;;
49548;SDS011;35450;44.518;7.466;2022-07-23T01:22:07;9.02;;;6.05;;
49548;SDS011;35450;44.518;7.466;2022-07-23T01:25:12;10.60;;;7.00;;
49548;SDS011;35450;44.518;7.466;2022-07-23T01:28:20;10.98;;;7.07;;
49548;SDS011;35450;44.518;7.466;2022-07-23T01:31:26;22.23;;;8.98;;
49548;SDS011;35450;44.518;7.466;2022-07-23T01:34:30;8.30;;;7.40;;
49548;SDS011;35450;44.518;7.466;2022-07-23T01:37:34;12.13;;;7.13;;
49548;SDS011;35450;44.518;7.466;2022-07-23T01:40:39;11.43;;;7.43;;
49548;SDS011;35450;44.518;7.466;2022-07-23T01:43:43;12.18;;;8.10;;
49548;SDS011;35450;44.518;7.466;2022-07-23T01:46:47;13.68;;;8.65;;
49548;SDS011;35450;44.518;7.466;2022-07-23T01:49:52;13.07;;;7.65;;
49548;SDS011;35450;44.518;7.466;2022-07-23T01:53:19;17.17;;;7.63;;
49548;SDS011;35450;44.518;7.466;2022-07-23T01:56:23;12.93;;;7.78;;
49548;SDS011;35450;44.518;7.466;2022-07-23T01:59:27;7.93;;;6.72;;
49548;SDS011;35450;44.518;7.466;2022-07-23T02:02:32;11.77;;;6.78;;
49548;SDS011;35450;44.518;7.466;2022-07-23T02:05:36;9.75;;;6.85;;
49548;SDS011;35450;44.518;7.466;2022-07-23T02:08:40;11.95;;;7.65;;
49548;SDS011;35450;44.518;7.466;2022-07-23T02:11:45;15.48;;;7.45;;
49548;SDS011;35450;44.518;7.466;2022-07-23T02:14:49;12.30;;;8.57;;
49548;SDS011;35450;44.518;7.466;2022-07-23T02:17:53;9.82;;;6.40;;
49548;SDS011;35450;44.518;7.466;2022-07-23T02:20:57;12.23;;;6.90;;
49548;SDS011;35450;44.518;7.466;2022-07-23T02:24:01;13.68;;;6.90;;
49548;SDS011;35450;44.518;7.466;2022-07-23T02:27:05;8.38;;;6.43;;
49548;SDS011;35450;44.518;7.466;2022-07-23T02:30:11;7.32;;;6.30;;
49548;SDS011;35450;44.518;7.466;2022-07-23T02:33:15;12.77;;;6.55;;
49548;SDS011;35450;44.518;7.466;2022-07-23T02:36:19;9.68;;;6.45;;
49548;SDS011;35450;44.518;7.466;2022-07-23T02:39:23;11.68;;;7.00;;
49548;SDS011;35450;44.518;7.466;2022-07-23T02:42:27;11.85;;;6.80;;
49548;SDS011;35450;44.518;7.466;2022-07-23T02:45:31;16.05;;;7.18;;
49548;SDS011;35450;44.518;7.466;2022-07-23T02:48:35;13.88;;;6.43;;
49548;SDS011;35450;44.518;7.466;2022-07-23T02:51:39;14.18;;;6.75;;
49548;SDS011;35450;44.518;7.466;2022-07-23T02:54:44;9.93;;;5.95;;
49548;SDS011;35450;44.518;7.466;2022-07-23T02:57:51;15.45;;;6.45;;
49548;SDS011;35450;44.518;7.466;2022-07-23T03:00:55;7.80;;;6.40;;
49548;SDS011;35450;44.518;7.466;2022-07-23T03:04:01;9.25;;;5.80;;
49548;SDS011;35450;44.518;7.466;2022-07-23T03:07:05;12.57;;;6.40;;
49548;SDS011;35450;44.518;7.466;2022-07-23T03:10:09;9.23;;;6.03;;
49548;SDS011;35450;44.518;7.466;2022-07-23T03:13:13;11.63;;;6.35;;
49548;SDS011;35450;44.518;7.466;2022-07-23T03:16:17;14.10;;;6.05;;
49548;SDS011;35450;44.518;7.466;2022-07-23T03:19:21;7.57;;;5.80;;
49548;SDS011;35450;44.518;7.466;2022-07-23T03:22:25;8.18;;;6.10;;
49548;SDS011;35450;44.518;7.466;2022-07-23T03:25:29;13.02;;;6.75;;
49548;SDS011;35450;44.518;7.466;2022-07-23T03:28:33;9.00;;;5.88;;
49548;SDS011;35450;44.518;7.466;2022-07-23T03:31:37;15.63;;;6.88;;
49548;SDS011;35450;44.518;7.466;2022-07-23T03:34:41;12.82;;;6.30;;
49548;SDS011;35450;44.518;7.466;2022-07-23T03:37:44;9.55;;;6.95;;
49548;SDS011;35450;44.518;7.466;2022-07-23T03:40:49;10.68;;;6.70;;
49548;SDS011;35450;44.518;7.466;2022-07-23T03:43:53;8.60;;;5.85;;
49548;SDS011;35450;44.518;7.466;2022-07-23T03:46:56;11.95;;;7.10;;
49548;SDS011;35450;44.518;7.466;2022-07-23T03:50:01;8.70;;;6.57;;
49548;SDS011;35450;44.518;7.466;2022-07-23T03:53:05;10.35;;;6.43;;
49548;SDS011;35450;44.518;7.466;2022-07-23T03:56:11;8.20;;;6.78;;
49548;SDS011;35450;44.518;7.466;2022-07-23T03:59:15;12.20;;;6.20;;
49548;SDS011;35450;44.518;7.466;2022-07-23T04:02:19;6.22;;;5.50;;
49548;SDS011;35450;44.518;7.466;2022-07-23T04:05:23;8.65;;;5.72;;
49548;SDS011;35450;44.518;7.466;2022-07-23T04:08:32;9.52;;;6.15;;
49548;SDS011;35450;44.518;7.466;2022-07-23T04:11:37;8.23;;;6.10;;
49548;SDS011;35450;44.518;7.466;2022-07-23T04:14:41;9.88;;;6.28;;
49548;SDS011;35450;44.518;7.466;2022-07-23T04:17:46;9.77;;;6.50;;
49548;SDS011;35450;44.518;7.466;2022-07-23T04:20:51;12.63;;;6.55;;
49548;SDS011;35450;44.518;7.466;2022-07-23T04:23:55;13.48;;;6.70;;
49548;SDS011;35450;44.518;7.466;2022-07-23T04:26:59;12.50;;;7.25;;
49548;SDS011;35450;44.518;7.466;2022-07-23T04:30:04;21.88;;;7.70;;
49548;SDS011;35450;44.518;7.466;2022-07-23T04:33:08;12.00;;;7.07;;
49548;SDS011;35450;44.518;7.466;2022-07-23T04:36:15;13.73;;;6.95;;
49548;SDS011;35450;44.518;7.466;2022-07-23T04:39:19;12.60;;;6.85;;
49548;SDS011;35450;44.518;7.466;2022-07-23T04:42:24;13.63;;;6.80;;
49548;SDS011;35450;44.518;7.466;2022-07-23T04:45:27;12.38;;;6.30;;
49548;SDS011;35450;44.518;7.466;2022-07-23T04:48:31;7.07;;;6.18;;
49548;SDS011;35450;44.518;7.466;2022-07-23T04:51:44;12.77;;;5.53;;
49548;SDS011;35450;44.518;7.466;2022-07-23T04:54:48;7.72;;;6.68;;
49548;SDS011;35450;44.518;7.466;2022-07-23T04:57:52;7.95;;;6.05;;
49548;SDS011;35450;44.518;7.466;2022-07-23T05:00:57;25.58;;;7.20;;
49548;SDS011;35450;44.518;7.466;2022-07-23T05:04:01;17.15;;;6.47;;
49548;SDS011;35450;44.518;7.466;2022-07-23T05:07:09;13.98;;;6.68;;
49548;SDS011;35450;44.518;7.466;2022-07-23T05:10:13;10.05;;;6.70;;
49548;SDS011;35450;44.518;7.466;2022-07-23T05:13:18;17.73;;;6.53;;
49548;SDS011;35450;44.518;7.466;2022-07-23T05:16:22;17.95;;;7.38;;
49548;SDS011;35450;44.518;7.466;2022-07-23T05:19:28;16.00;;;7.40;;
49548;SDS011;35450;44.518;7.466;2022-07-23T05:22:32;12.20;;;7.10;;
49548;SDS011;35450;44.518;7.466;2022-07-23T05:25:36;12.10;;;6.15;;
49548;SDS011;35450;44.518;7.466;2022-07-23T05:28:40;11.98;;;6.63;;
49548;SDS011;35450;44.518;7.466;2022-07-23T05:31:46;7.22;;;6.57;;
49548;SDS011;35450;44.518;7.466;2022-07-23T05:34:50;8.05;;;7.18;;
49548;SDS011;35450;44.518;7.466;2022-07-23T05:37:54;14.27;;;6.45;;
49548;SDS011;35450;44.518;7.466;2022-07-23T05:40:58;12.40;;;7.32;;
49548;SDS011;35450;44.518;7.466;2022-07-23T05:44:03;9.65;;;6.38;;
49548;SDS011;35450;44.518;7.466;2022-07-23T05:47:09;15.05;;;7.25;;
49548;SDS011;35450;44.518;7.466;2022-07-23T05:50:14;15.65;;;8.13;;
49548;SDS011;35450;44.518;7.466;2022-07-23T05:53:23;10.70;;;7.53;;
49548;SDS011;35450;44.518;7.466;2022-07-23T05:56:36;17.92;;;7.35;;
49548;SDS011;35450;44.518;7.466;2022-07-23T05:59:40;17.67;;;7.95;;
49548;SDS011;35450;44.518;7.466;2022-07-23T06:02:44;14.10;;;7.90;;
49548;SDS011;35450;44.518;7.466;2022-07-23T06:05:50;13.98;;;7.50;;
49548;SDS011;35450;44.518;7.466;2022-07-23T06:08:54;14.55;;;7.88;;
49548;SDS011;35450;44.518;7.466;2022-07-23T06:11:58;18.75;;;8.38;;
49548;SDS011;35450;44.518;7.466;2022-07-23T06:15:02;16.00;;;8.93;;
49548;SDS011;35450;44.518;7.466;2022-07-23T06:18:08;13.23;;;8.15;;
49548;SDS011;35450;44.518;7.466;2022-07-23T06:21:12;13.32;;;8.13;;
49548;SDS011;35450;44.518;7.466;2022-07-23T06:24:16;10.23;;;7.43;;
49548;SDS011;35450;44.518;7.466;2022-07-23T06:27:20;15.68;;;8.77;;
49548;SDS011;35450;44.518;7.466;2022-07-23T06:30:23;13.50;;;8.38;;
49548;SDS011;35450;44.518;7.466;2022-07-23T06:33:27;19.55;;;8.73;;
49548;SDS011;35450;44.518;7.466;2022-07-23T06:36:31;14.18;;;8.10;;
49548;SDS011;35450;44.518;7.466;2022-07-23T06:39:36;17.52;;;8.25;;
49548;SDS011;35450;44.518;7.466;2022-07-23T06:42:40;16.77;;;8.20;;
49548;SDS011;35450;44.518;7.466;2022-07-23T06:45:51;15.45;;;8.82;;
49548;SDS011;35450;44.518;7.466;2022-07-23T06:48:55;16.65;;;9.00;;
49548;SDS011;35450;44.518;7.466;2022-07-23T06:52:00;15.70;;;8.13;;
49548;SDS011;35450;44.518;7.466;2022-07-23T06:55:04;10.70;;;8.75;;
49548;SDS011;35450;44.518;7.466;2022-07-23T06:58:08;13.52;;;8.65;;
49548;SDS011;35450;44.518;7.466;2022-07-23T07:01:13;14.15;;;8.98;;
49548;SDS011;35450;44.518;7.466;2022-07-23T07:04:18;11.45;;;8.35;;
49548;SDS011;35450;44.518;7.466;2022-07-23T07:07:22;17.17;;;8.73;;
49548;SDS011;35450;44.518;7.466;2022-07-23T07:10:26;11.10;;;8.32;;
49548;SDS011;35450;44.518;7.466;2022-07-23T07:13:30;13.43;;;7.63;;
49548;SDS011;35450;44.518;7.466;2022-07-23T07:16:34;13.38;;;8.00;;
49548;SDS011;35450;44.518;7.466;2022-07-23T07:19:38;10.85;;;7.05;;
49548;SDS011;35450;44.518;7.466;2022-07-23T07:22:42;14.13;;;6.40;;
49548;SDS011;35450;44.518;7.466;2022-07-23T07:25:46;14.18;;;6.72;;
49548;SDS011;35450;44.518;7.466;2022-07-23T07:28:51;12.65;;;6.18;;
49548;SDS011;35450;44.518;7.466;2022-07-23T07:31:55;8.15;;;5.75;;
49548;SDS011;35450;44.518;7.466;2022-07-23T07:34:59;14.43;;;6.00;;
49548;SDS011;35450;44.518;7.466;2022-07-23T07:38:03;10.75;;;5.57;;
49548;SDS011;35450;44.518;7.466;2022-07-23T07:41:07;9.20;;;5.68;;
49548;SDS011;35450;44.518;7.466;2022-07-23T07:44:13;11.50;;;5.85;;
49548;SDS011;35450;44.518;7.466;2022-07-23T07:47:17;12.07;;;6.18;;
49548;SDS011;35450;44.518;7.466;2022-07-23T07:50:21;9.70;;;5.30;;
49548;SDS011;35450;44.518;7.466;2022-07-23T07:53:25;10.25;;;6.00;;
49548;SDS011;35450;44.518;7.466;2022-07-23T07:56:29;12.93;;;6.25;;
49548;SDS011;35450;44.518;7.466;2022-07-23T07:59:34;12.98;;;5.80;;
49548;SDS011;35450;44.518;7.466;2022-07-23T08:02:49;11.85;;;5.70;;
49548;SDS011;35450;44.518;7.466;2022-07-23T08:05:55;14.00;;;5.63;;
49548;SDS011;35450;44.518;7.466;2022-07-23T08:08:59;7.10;;;5.63;;
49548;SDS011;35450;44.518;7.466;2022-07-23T08:12:03;13.05;;;5.93;;
49548;SDS011;35450;44.518;7.466;2022-07-23T08:15:07;11.70;;;6.10;;
49548;SDS011;35450;44.518;7.466;2022-07-23T08:18:12;16.60;;;5.72;;
49548;SDS011;35450;44.518;7.466;2022-07-23T08:21:17;10.70;;;6.25;;
49548;SDS011;35450;44.518;7.466;2022-07-23T08:24:21;13.18;;;5.93;;
49548;SDS011;35450;44.518;7.466;2022-07-23T08:27:25;11.43;;;5.78;;
49548;SDS011;35450;44.518;7.466;2022-07-23T08:30:30;11.68;;;5.57;;
49548;SDS011;35450;44.518;7.466;2022-07-23T08:33:34;14.60;;;6.25;;
49548;SDS011;35450;44.518;7.466;2022-07-23T08:36:38;11.50;;;5.57;;
49548;SDS011;35450;44.518;7.466;2022-07-23T08:39:43;9.02;;;5.93;;
49548;SDS011;35450;44.518;7.466;2022-07-23T08:42:47;12.13;;;5.95;;
49548;SDS011;35450;44.518;7.466;2022-07-23T08:45:53;13.45;;;6.72;;
49548;SDS011;35450;44.518;7.466;2022-07-23T08:49:02;9.60;;;6.13;;
49548;SDS011;35450;44.518;7.466;2022-07-23T08:52:07;14.10;;;5.50;;
49548;SDS011;35450;44.518;7.466;2022-07-23T08:55:11;9.60;;;5.63;;
49548;SDS011;35450;44.518;7.466;2022-07-23T08:58:15;10.32;;;5.57;;
49548;SDS011;35450;44.518;7.466;2022-07-23T09:01:19;7.10;;;5.50;;
49548;SDS011;35450;44.518;7.466;2022-07-23T09:04:23;10.43;;;5.88;;
49548;SDS011;35450;44.518;7.466;2022-07-23T09:07:27;13.63;;;5.70;;
49548;SDS011;35450;44.518;7.466;2022-07-23T09:13:59;10.25;;;5.35;;
49548;SDS011;35450;44.518;7.466;2022-07-23T09:17:12;11.73;;;6.47;;
49548;SDS011;35450;44.518;7.466;2022-07-23T09:20:17;20.50;;;6.53;;
49548;SDS011;35450;44.518;7.466;2022-07-23T09:23:25;9.30;;;5.88;;
49548;SDS011;35450;44.518;7.466;2022-07-23T09:26:42;15.45;;;5.97;;
49548;SDS011;35450;44.518;7.466;2022-07-23T09:29:56;14.55;;;6.57;;
49548;SDS011;35450;44.518;7.466;2022-07-23T09:33:05;10.18;;;5.47;;
49548;SDS011;35450;44.518;7.466;2022-07-23T09:36:14;11.50;;;6.20;;
49548;SDS011;35450;44.518;7.466;2022-07-23T09:39:29;10.00;;;6.30;;
49548;SDS011;35450;44.518;7.466;2022-07-23T09:42:35;12.15;;;6.20;;
49548;SDS011;35450;44.518;7.466;2022-07-23T09:45:39;10.20;;;5.85;;
49548;SDS011;35450;44.518;7.466;2022-07-23T09:48:44;10.05;;;5.40;;
49548;SDS011;35450;44.518;7.466;2022-07-23T09:51:53;12.13;;;5.32;;
49548;SDS011;35450;44.518;7.466;2022-07-23T09:55:03;13.82;;;6.32;;
49548;SDS011;35450;44.518;7.466;2022-07-23T09:58:09;13.93;;;6.07;;
49548;SDS011;35450;44.518;7.466;2022-07-23T10:01:16;17.55;;;6.18;;
49548;SDS011;35450;44.518;7.466;2022-07-23T10:04:21;14.25;;;6.07;;
49548;SDS011;35450;44.518;7.466;2022-07-23T10:07:49;8.40;;;5.45;;
49548;SDS011;35450;44.518;7.466;2022-07-23T10:11:27;14.07;;;6.18;;
49548;SDS011;35450;44.518;7.466;2022-07-23T10:14:45;10.45;;;6.20;;
49548;SDS011;35450;44.518;7.466;2022-07-23T10:17:49;13.23;;;6.60;;
49548;SDS011;35450;44.518;7.466;2022-07-23T10:20:53;11.43;;;6.57;;
49548;SDS011;35450;44.518;7.466;2022-07-23T10:30:54;13.10;;;6.00;;
49548;SDS011;35450;44.518;7.466;2022-07-23T10:37:39;14.48;;;6.63;;
49548;SDS011;35450;44.518;7.466;2022-07-23T13:09:06;10.20;;;6.55;;
49548;SDS011;35450;44.518;7.466;2022-07-23T13:12:11;7.75;;;5.70;;
49548;SDS011;35450;44.518;7.466;2022-07-23T13:15:16;11.32;;;6.13;;
49548;SDS011;35450;44.518;7.466;2022-07-23T13:18:20;12.25;;;5.30;;
49548;SDS011;35450;44.518;7.466;2022-07-23T13:21:25;14.45;;;5.70;;
49548;SDS011;35450;44.518;7.466;2022-07-23T13:24:31;11.57;;;5.90;;
49548;SDS011;35450;44.518;7.466;2022-07-23T13:27:35;8.52;;;5.38;;
49548;SDS011;35450;44.518;7.466;2022-07-23T13:30:39;15.07;;;6.05;;
49548;SDS011;35450;44.518;7.466;2022-07-23T13:33:44;7.40;;;5.07;;
49548;SDS011;35450;44.518;7.466;2022-07-23T13:36:48;8.80;;;6.00;;
49548;SDS011;35450;44.518;7.466;2022-07-23T13:39:52;9.15;;;5.55;;
49548;SDS011;35450;44.518;7.466;2022-07-23T13:42:56;11.18;;;5.32;;
49548;SDS011;35450;44.518;7.466;2022-07-23T13:46:00;10.55;;;6.53;;
49548;SDS011;35450;44.518;7.466;2022-07-23T13:49:03;9.48;;;6.18;;
49548;SDS011;35450;44.518;7.466;2022-07-23T13:52:08;9.77;;;5.78;;
49548;SDS011;35450;44.518;7.466;2022-07-23T13:55:12;14.15;;;6.00;;
49548;SDS011;35450;44.518;7.466;2022-07-23T13:58:16;10.70;;;5.50;;
49548;SDS011;35450;44.518;7.466;2022-07-23T14:01:21;23.88;;;6.07;;
49548;SDS011;35450;44.518;7.466;2022-07-23T14:04:25;7.32;;;5.80;;
49548;SDS011;35450;44.518;7.466;2022-07-23T14:07:29;20.48;;;5.63;;
49548;SDS011;35450;44.518;7.466;2022-07-23T14:10:33;19.38;;;5.45;;
49548;SDS011;35450;44.518;7.466;2022-07-23T14:13:37;13.63;;;5.95;;
49548;SDS011;35450;44.518;7.466;2022-07-23T14:16:41;13.68;;;5.70;;
49548;SDS011;35450;44.518;7.466;2022-07-23T14:19:45;11.25;;;5.88;;
49548;SDS011;35450;44.518;7.466;2022-07-23T14:22:49;16.20;;;6.00;;
49548;SDS011;35450;44.518;7.466;2022-07-23T14:25:53;11.00;;;5.60;;
49548;SDS011;35450;44.518;7.466;2022-07-23T14:28:57;7.72;;;5.82;;
49548;SDS011;35450;44.518;7.466;2022-07-23T14:32:02;12.35;;;6.22;;
49548;SDS011;35450;44.518;7.466;2022-07-23T14:35:07;9.48;;;5.72;;
49548;SDS011;35450;44.518;7.466;2022-07-23T14:38:12;9.68;;;5.85;;
49548;SDS011;35450;44.518;7.466;2022-07-23T14:41:16;11.88;;;6.22;;
49548;SDS011;35450;44.518;7.466;2022-07-23T14:44:21;14.27;;;6.40;;
49548;SDS011;35450;44.518;7.466;2022-07-23T14:47:25;16.38;;;5.85;;
49548;SDS011;35450;44.518;7.466;2022-07-23T14:50:29;13.88;;;7.30;;
49548;SDS011;35450;44.518;7.466;2022-07-23T14:53:34;11.50;;;6.38;;
49548;SDS011;35450;44.518;7.466;2022-07-23T14:56:38;10.82;;;6.97;;
49548;SDS011;35450;44.518;7.466;2022-07-23T14:59:42;15.88;;;5.93;;
49548;SDS011;35450;44.518;7.466;2022-07-23T15:02:46;10.65;;;6.20;;
49548;SDS011;35450;44.518;7.466;2022-07-23T15:05:50;14.55;;;6.32;;
49548;SDS011;35450;44.518;7.466;2022-07-23T15:08:54;9.30;;;6.32;;
49548;SDS011;35450;44.518;7.466;2022-07-23T15:11:59;11.63;;;6.20;;
49548;SDS011;35450;44.518;7.466;2022-07-23T15:15:03;12.70;;;6.40;;
49548;SDS011;35450;44.518;7.466;2022-07-23T15:18:07;14.43;;;6.85;;
49548;SDS011;35450;44.518;7.466;2022-07-23T15:21:11;20.60;;;7.00;;
49548;SDS011;35450;44.518;7.466;2022-07-23T15:24:16;9.82;;;7.00;;
49548;SDS011;35450;44.518;7.466;2022-07-23T15:27:20;12.48;;;6.47;;
49548;SDS011;35450;44.518;7.466;2022-07-23T15:30:24;17.30;;;6.53;;
49548;SDS011;35450;44.518;7.466;2022-07-23T15:33:29;14.10;;;6.93;;
49548;SDS011;35450;44.518;7.466;2022-07-23T15:36:33;13.85;;;6.47;;
49548;SDS011;35450;44.518;7.466;2022-07-23T15:39:37;12.75;;;6.97;;
49548;SDS011;35450;44.518;7.466;2022-07-23T15:42:41;15.23;;;6.53;;
49548;SDS011;35450;44.518;7.466;2022-07-23T15:45:45;12.48;;;6.22;;
49548;SDS011;35450;44.518;7.466;2022-07-23T15:48:50;8.85;;;6.10;;
49548;SDS011;35450;44.518;7.466;2022-07-23T15:51:55;14.80;;;6.50;;
49548;SDS011;35450;44.518;7.466;2022-07-23T15:54:59;13.07;;;5.85;;
49548;SDS011;35450;44.518;7.466;2022-07-23T15:58:03;14.93;;;5.53;;
49548;SDS011;35450;44.518;7.466;2022-07-23T16:01:07;8.80;;;6.13;;
49548;SDS011;35450;44.518;7.466;2022-07-23T16:04:11;17.33;;;6.10;;
49548;SDS011;35450;44.518;7.466;2022-07-23T16:07:19;9.45;;;6.25;;
49548;SDS011;35450;44.518;7.466;2022-07-23T16:10:23;10.90;;;7.10;;
49548;SDS011;35450;44.518;7.466;2022-07-23T16:13:27;9.02;;;5.90;;
49548;SDS011;35450;44.518;7.466;2022-07-23T16:16:33;8.50;;;6.75;;
49548;SDS011;35450;44.518;7.466;2022-07-23T16:19:37;10.52;;;6.07;;
49548;SDS011;35450;44.518;7.466;2022-07-23T16:22:41;15.55;;;6.68;;
49548;SDS011;35450;44.518;7.466;2022-07-23T16:25:45;13.10;;;7.60;;
49548;SDS011;35450;44.518;7.466;2022-07-23T16:28:50;12.07;;;6.07;;
49548;SDS011;35450;44.518;7.466;2022-07-23T16:31:55;10.15;;;6.03;;
49548;SDS011;35450;44.518;7.466;2022-07-23T16:34:59;17.13;;;6.03;;
49548;SDS011;35450;44.518;7.466;2022-07-23T16:38:03;14.88;;;6.70;;
49548;SDS011;35450;44.518;7.466;2022-07-23T16:41:07;15.07;;;6.40;;
49548;SDS011;35450;44.518;7.466;2022-07-23T16:44:12;12.90;;;6.93;;
49548;SDS011;35450;44.518;7.466;2022-07-23T16:47:16;10.70;;;6.38;;
49548;SDS011;35450;44.518;7.466;2022-07-23T16:50:22;15.85;;;6.40;;
49548;SDS011;35450;44.518;7.466;2022-07-23T16:53:26;14.32;;;7.10;;
49548;SDS011;35450;44.518;7.466;2022-07-23T16:56:30;9.48;;;6.20;;
49548;SDS011;35450;44.518;7.466;2022-07-23T16:59:34;14.48;;;6.32;;
49548;SDS011;35450;44.518;7.466;2022-07-23T17:02:38;14.00;;;6.40;;
49548;SDS011;35450;44.518;7.466;2022-07-23T17:05:42;13.45;;;6.78;;
49548;SDS011;35450;44.518;7.466;2022-07-23T17:08:47;9.05;;;6.55;;
49548;SDS011;35450;44.518;7.466;2022-07-23T17:11:51;13.68;;;7.10;;
49548;SDS011;35450;44.518;7.466;2022-07-23T17:14:55;12.57;;;6.55;;
49548;SDS011;35450;44.518;7.466;2022-07-23T17:17:59;10.75;;;7.00;;
49548;SDS011;35450;44.518;7.466;2022-07-23T17:21:03;9.30;;;6.07;;
49548;SDS011;35450;44.518;7.466;2022-07-23T17:24:07;13.25;;;6.47;;
49548;SDS011;35450;44.518;7.466;2022-07-23T17:27:11;12.25;;;5.82;;
49548;SDS011;35450;44.518;7.466;2022-07-23T17:30:15;12.13;;;6.43;;
49548;SDS011;35450;44.518;7.466;2022-07-23T17:33:19;13.18;;;6.43;;
49548;SDS011;35450;44.518;7.466;2022-07-23T17:36:23;13.18;;;7.10;;
49548;SDS011;35450;44.518;7.466;2022-07-23T17:39:28;8.23;;;5.80;;
49548;SDS011;35450;44.518;7.466;2022-07-23T17:42:32;7.93;;;6.10;;
49548;SDS011;35450;44.518;7.466;2022-07-23T17:45:36;11.20;;;6.28;;
49548;SDS011;35450;44.518;7.466;2022-07-23T17:48:40;10.48;;;5.93;;
49548;SDS011;35450;44.518;7.466;2022-07-23T17:51:44;21.52;;;5.95;;
49548;SDS011;35450;44.518;7.466;2022-07-23T17:54:48;20.75;;;6.90;;
49548;SDS011;35450;44.518;7.466;2022-07-23T17:57:52;10.40;;;5.72;;
49548;SDS011;35450;44.518;7.466;2022-07-23T18:00:57;9.63;;;6.38;;
49548;SDS011;35450;44.518;7.466;2022-07-23T18:04:02;10.77;;;6.85;;
49548;SDS011;35450;44.518;7.466;2022-07-23T18:07:06;10.15;;;6.68;;
49548;SDS011;35450;44.518;7.466;2022-07-23T18:10:10;14.30;;;7.03;;
49548;SDS011;35450;44.518;7.466;2022-07-23T18:13:15;12.88;;;6.93;;
49548;SDS011;35450;44.518;7.466;2022-07-23T18:16:19;10.27;;;6.75;;
49548;SDS011;35450;44.518;7.466;2022-07-23T18:19:23;12.13;;;6.65;;
49548;SDS011;35450;44.518;7.466;2022-07-23T18:22:27;10.00;;;7.00;;
49548;SDS011;35450;44.518;7.466;2022-07-23T18:25:31;17.83;;;6.97;;
49548;SDS011;35450;44.518;7.466;2022-07-23T18:28:35;12.55;;;6.13;;
49548;SDS011;35450;44.518;7.466;2022-07-23T18:31:39;14.70;;;6.82;;
49548;SDS011;35450;44.518;7.466;2022-07-23T18:34:43;14.15;;;7.05;;
49548;SDS011;35450;44.518;7.466;2022-07-23T18:37:47;14.15;;;7.25;;
49548;SDS011;35450;44.518;7.466;2022-07-23T18:40:51;9.40;;;6.82;;
49548;SDS011;35450;44.518;7.466;2022-07-23T18:43:57;11.43;;;7.03;;
49548;SDS011;35450;44.518;7.466;2022-07-23T18:47:01;13.75;;;7.53;;
49548;SDS011;35450;44.518;7.466;2022-07-23T18:50:05;8.70;;;6.53;;
49548;SDS011;35450;44.518;7.466;2022-07-23T18:53:11;13.20;;;7.07;;
49548;SDS011;35450;44.518;7.466;2022-07-23T18:56:16;14.65;;;6.47;;
49548;SDS011;35450;44.518;7.466;2022-07-23T18:59:20;13.00;;;5.78;;
49548;SDS011;35450;44.518;7.466;2022-07-23T19:02:24;8.50;;;5.30;;
49548;SDS011;35450;44.518;7.466;2022-07-23T19:05:28;11.60;;;5.60;;
49548;SDS011;35450;44.518;7.466;2022-07-23T19:08:32;11.10;;;6.63;;
49548;SDS011;35450;44.518;7.466;2022-07-23T19:11:36;10.88;;;7.18;;
49548;SDS011;35450;44.518;7.466;2022-07-23T19:14:40;9.70;;;6.45;;
49548;SDS011;35450;44.518;7.466;2022-07-23T19:17:44;19.85;;;6.97;;
49548;SDS011;35450;44.518;7.466;2022-07-23T19:20:48;11.65;;;7.40;;
49548;SDS011;35450;44.518;7.466;2022-07-23T19:23:52;11.10;;;7.05;;
49548;SDS011;35450;44.518;7.466;2022-07-23T19:26:56;11.52;;;7.18;;
49548;SDS011;35450;44.518;7.466;2022-07-23T19:30:00;15.15;;;6.03;;
49548;SDS011;35450;44.518;7.466;2022-07-23T19:33:05;13.25;;;7.00;;
49548;SDS011;35450;44.518;7.466;2022-07-23T19:36:09;13.27;;;6.43;;
49548;SDS011;35450;44.518;7.466;2022-07-23T19:39:13;13.27;;;7.32;;
49548;SDS011;35450;44.518;7.466;2022-07-23T19:42:17;10.25;;;6.32;;
49548;SDS011;35450;44.518;7.466;2022-07-23T19:45:22;9.43;;;7.47;;
49548;SDS011;35450;44.518;7.466;2022-07-23T19:48:26;13.70;;;6.70;;
49548;SDS011;35450;44.518;7.466;2022-07-23T19:51:30;8.38;;;6.68;;
49548;SDS011;35450;44.518;7.466;2022-07-23T19:54:34;11.85;;;6.05;;
49548;SDS011;35450;44.518;7.466;2022-07-23T19:57:39;11.73;;;6.65;;
49548;SDS011;35450;44.518;7.466;2022-07-23T20:00:43;7.85;;;5.95;;
49548;SDS011;35450;44.518;7.466;2022-07-23T20:03:47;10.85;;;6.70;;
49548;SDS011;35450;44.518;7.466;2022-07-23T20:06:51;11.60;;;6.18;;
49548;SDS011;35450;44.518;7.466;2022-07-23T20:09:55;13.13;;;6.38;;
49548;SDS011;35450;44.518;7.466;2022-07-23T20:12:59;11.38;;;6.95;;
49548;SDS011;35450;44.518;7.466;2022-07-23T20:16:03;13.43;;;6.38;;
49548;SDS011;35450;44.518;7.466;2022-07-23T20:19:07;18.67;;;6.10;;
49548;SDS011;35450;44.518;7.466;2022-07-23T20:22:11;13.30;;;6.07;;
49548;SDS011;35450;44.518;7.466;2022-07-23T20:25:15;15.48;;;6.32;;
49548;SDS011;35450;44.518;7.466;2022-07-23T20:28:19;9.57;;;6.30;;
49548;SDS011;35450;44.518;7.466;2022-07-23T20:31:23;14.27;;;6.15;;
49548;SDS011;35450;44.518;7.466;2022-07-23T20:34:27;14.80;;;5.45;;
49548;SDS011;35450;44.518;7.466;2022-07-23T20:37:31;13.88;;;6.32;;
49548;SDS011;35450;44.518;7.466;2022-07-23T20:40:36;9.23;;;5.72;;
49548;SDS011;35450;44.518;7.466;2022-07-23T20:43:41;14.57;;;6.65;;
49548;SDS011;35450;44.518;7.466;2022-07-23T20:46:45;19.50;;;6.38;;
49548;SDS011;35450;44.518;7.466;2022-07-23T20:49:49;8.80;;;5.68;;
49548;SDS011;35450;44.518;7.466;2022-07-23T20:52:53;13.52;;;6.32;;
49548;SDS011;35450;44.518;7.466;2022-07-23T20:55:58;11.43;;;6.07;;
49548;SDS011;35450;44.518;7.466;2022-07-23T20:59:02;13.07;;;6.38;;
49548;SDS011;35450;44.518;7.466;2022-07-23T21:02:07;11.60;;;6.30;;
49548;SDS011;35450;44.518;7.466;2022-07-23T21:05:11;17.52;;;6.68;;